Time;durP1;ratioP1;P1;durP2;ratioP2;P2;SDS_P1;SDS_P2;PMS_P1;PMS_P2;Temp;Humidity;BMP_temperature;BMP_pressure;BME280_temperature;BME280_humidity;BME280_pressure;Samples;Min_cycle;Max_cycle;Signal;HPM_P1;HPM_P2
2022/07/03 00:00:03;;;;;;;;;;;31.00;46.80;;;;;;692111;28;1172;-84
2022/07/03 00:00:23;;;;;;;;;;;31.00;46.40;;;;;;694467;28;905;-84
2022/07/03 00:00:44;;;;;;;;;;;31.00;46.50;;;;;;694604;28;1092;-85
2022/07/03 00:01:06;;;;;;;;;;;31.00;46.30;;;;;;694970;28;803;-84
2022/07/03 00:01:27;;;;;;;;;;;31.00;46.70;;;;;;697950;28;1456;-85
2022/07/03 00:01:47;;;;;;;;;;;31.00;46.50;;;;;;699962;28;794;-85
2022/07/03 00:02:09;;;;;;;;;;;31.00;46.60;;;;;;700115;28;755;-84
2022/07/03 00:02:29;;;;;;;;;;;31.00;46.40;;;;;;700572;28;786;-85
2022/07/03 00:02:50;;;;;;;;;;;31.00;47.00;;;;;;697943;28;1289;-85
2022/07/03 00:03:10;;;;;;;;;;;31.00;46.70;;;;;;695404;28;1145;-84
2022/07/03 00:03:31;;;;;;;;;;;31.00;46.60;;;;;;698026;28;802;-85
2022/07/03 00:03:51;;;;;;;;;;;31.00;46.40;;;;;;698301;28;854;-84
2022/07/03 00:04:12;;;;;;;;;;;31.00;46.30;;;;;;697727;28;791;-85
2022/07/03 00:04:32;;;;;;;;;;;31.00;46.20;;;;;;695331;28;1110;-84
2022/07/03 00:04:53;;;;;;;;;;;31.00;46.10;;;;;;698085;28;977;-84
2022/07/03 00:05:14;;;;;;;;;;;31.00;46.00;;;;;;701826;28;841;-84
2022/07/03 00:05:35;;;;;;;;;;;31.00;46.20;;;;;;699146;28;1256;-85
2022/07/03 00:05:55;;;;;;;;;;;31.00;46.40;;;;;;699496;28;1020;-85
2022/07/03 00:06:16;;;;;;;;;;;31.00;46.20;;;;;;696004;28;1315;-85
2022/07/03 00:06:36;;;;;;;;;;;31.00;46.50;;;;;;696403;28;1184;-85
2022/07/03 00:06:57;;;;;;;;;;;31.00;46.20;;;;;;693734;28;1236;-85
2022/07/03 00:07:18;;;;;;;;;;;31.00;46.10;;;;;;694098;28;854;-85
2022/07/03 00:07:38;;;;;;;;;;;31.00;46.10;;;;;;693751;28;1205;-85
2022/07/03 00:07:59;;;;;;;;;;;31.00;46.30;;;;;;694327;28;1152;-85
2022/07/03 00:08:20;;;;;;;;;;;31.00;46.40;;;;;;693968;28;1449;-85
2022/07/03 00:08:40;;;;;;;;;;;31.00;46.40;;;;;;693495;28;1166;-85
2022/07/03 00:09:03;;;;;;;;;;;31.00;46.40;;;;;;696572;28;783;-85
2022/07/03 00:09:24;;;;;;;;;;;31.00;46.10;;;;;;696783;28;1446;-84
2022/07/03 00:09:45;;;;;;;;;;;31.00;46.10;;;;;;697108;28;704;-85
2022/07/03 00:10:06;;;;;;;;;;;31.00;46.20;;;;;;697694;28;996;-85
2022/07/03 00:10:27;;;;;;;;;;;31.00;46.30;;;;;;697502;28;1180;-85
2022/07/03 00:10:47;;;;;;;;;;;31.00;46.30;;;;;;696640;28;1312;-85
2022/07/03 00:11:08;;;;;;;;;;;31.00;46.70;;;;;;694607;28;1193;-85
2022/07/03 00:11:29;;;;;;;;;;;31.00;46.10;;;;;;694040;28;1261;-85
2022/07/03 00:11:49;;;;;;;;;;;31.00;46.70;;;;;;691059;28;1255;-84
2022/07/03 00:12:10;;;;;;;;;;;31.00;46.50;;;;;;691180;28;997;-85
2022/07/03 00:12:31;;;;;;;;;;;31.00;46.50;;;;;;694404;28;858;-85
2022/07/03 00:12:51;;;;;;;;;;;31.00;46.40;;;;;;696811;28;1883;-85
2022/07/03 00:13:12;;;;;;;;;;;31.00;46.60;;;;;;699545;28;996;-85
2022/07/03 00:13:33;;;;;;;;;;;31.00;46.10;;;;;;701954;28;849;-85
2022/07/03 00:13:53;;;;;;;;;;;31.00;46.10;;;;;;703800;28;873;-85
2022/07/03 00:14:14;;;;;;;;;;;31.00;46.30;;;;;;701368;28;1338;-84
2022/07/03 00:14:34;;;;;;;;;;;31.00;46.40;;;;;;697645;28;1259;-85
2022/07/03 00:14:55;;;;;;;;;;;31.00;46.50;;;;;;698371;28;771;-85
2022/07/03 00:15:15;;;;;;;;;;;31.00;46.40;;;;;;697591;28;1195;-85
2022/07/03 00:15:36;;;;;;;;;;;31.00;46.20;;;;;;697297;28;869;-85
2022/07/03 00:15:56;;;;;;;;;;;31.00;46.00;;;;;;697603;28;775;-85
2022/07/03 00:16:17;;;;;;;;;;;31.00;46.10;;;;;;698180;28;1327;-85
2022/07/03 00:16:38;;;;;;;;;;;31.00;46.10;;;;;;698043;28;1441;-85
2022/07/03 00:16:58;;;;;;;;;;;31.00;46.30;;;;;;697910;28;827;-85
2022/07/03 00:17:19;;;;;;;;;;;31.00;46.30;;;;;;697738;28;1484;-85
2022/07/03 00:17:39;;;;;;;;;;;31.00;46.00;;;;;;695108;28;1109;-85
2022/07/03 00:18:00;;;;;;;;;;;31.00;46.00;;;;;;695135;28;877;-84
2022/07/03 00:18:20;;;;;;;;;;;31.00;46.30;;;;;;697516;28;900;-85
2022/07/03 00:18:41;;;;;;;;;;;31.00;46.10;;;;;;697480;28;806;-85
2022/07/03 00:19:02;;;;;;;;;;;31.00;46.00;;;;;;697244;28;743;-84
2022/07/03 00:19:22;;;;;;;;;;;31.00;46.00;;;;;;700098;28;798;-85
2022/07/03 00:19:43;;;;;;;;;;;31.10;47.10;;;;;;699674;28;1241;-85
2022/07/03 00:20:04;;;;;;;;;;;31.00;46.40;;;;;;699759;28;1056;-84
2022/07/03 00:20:25;;;;;;;;;;;31.00;46.30;;;;;;699712;28;1103;-85
2022/07/03 00:20:53;;;;;;;;;;;31.00;46.00;;;;;;699630;28;837;-85
2022/07/03 00:21:16;;;;;;;;;;;31.10;46.40;;;;;;699677;28;932;-85
2022/07/03 00:21:44;;;;;;;;;;;31.00;46.10;;;;;;699887;28;1004;-85
2022/07/03 00:22:05;;;;;;;;;;;31.10;46.10;;;;;;699724;28;1296;-84
2022/07/03 00:22:26;;;;;;;;;;;31.00;46.20;;;;;;699933;28;1312;-86
2022/07/03 00:22:47;;;;;;;;;;;31.00;46.00;;;;;;699701;28;856;-85
2022/07/03 00:23:09;;;;;;;;;;;31.00;46.30;;;;;;699681;28;1206;-85
2022/07/03 00:23:33;;;;;;;;;;;31.00;46.20;;;;;;699551;28;1393;-85
2022/07/03 00:23:56;;;;;;;;;;;31.00;46.40;;;;;;698305;28;1380;-85
2022/07/03 00:24:25;;;;;;;;;;;31.00;46.30;;;;;;696937;28;1494;-85
2022/07/03 00:24:52;;;;;;;;;;;31.00;46.10;;;;;;694072;28;1476;-85
2022/07/03 00:25:13;;;;;;;;;;;31.00;46.00;;;;;;694099;28;1180;-84
2022/07/03 00:25:33;;;;;;;;;;;31.00;46.00;;;;;;691377;28;1378;-84
2022/07/03 00:25:54;;;;;;;;;;;31.00;46.80;;;;;;691366;28;1194;-85
2022/07/03 00:26:15;;;;;;;;;;;31.00;46.20;;;;;;691479;28;755;-84
2022/07/03 00:26:38;;;;;;;;;;;31.00;46.00;;;;;;689938;28;1115;-85
2022/07/03 00:27:00;;;;;;;;;;;31.00;45.90;;;;;;689452;28;1057;-85
2022/07/03 00:27:23;;;;;;;;;;;31.00;46.20;;;;;;692691;28;806;-84
2022/07/03 00:27:45;;;;;;;;;;;30.00;45.40;;;;;;692475;28;1443;-85
2022/07/03 00:28:06;;;;;;;;;;;31.00;46.20;;;;;;691287;28;1436;-85
2022/07/03 00:28:26;;;;;;;;;;;30.90;46.00;;;;;;691324;28;1194;-84
2022/07/03 00:28:47;;;;;;;;;;;31.00;46.10;;;;;;689564;28;909;-85
2022/07/03 00:29:09;;;;;;;;;;;31.00;46.00;;;;;;691418;28;937;-85
2022/07/03 00:29:35;;;;;;;;;;;31.00;46.10;;;;;;692032;28;1292;-85
2022/07/03 00:29:58;;;;;;;;;;;31.00;46.10;;;;;;695510;28;854;-85
2022/07/03 00:30:20;;;;;;;;;;;31.00;46.10;;;;;;694085;28;1203;-85
2022/07/03 00:30:40;;;;;;;;;;;31.00;46.10;;;;;;695760;28;1125;-85
2022/07/03 00:31:01;;;;;;;;;;;31.00;46.40;;;;;;694117;28;1177;-85
2022/07/03 00:31:22;;;;;;;;;;;31.00;46.10;;;;;;695806;28;790;-84
2022/07/03 00:31:43;;;;;;;;;;;31.00;45.90;;;;;;693974;28;1499;-85
2022/07/03 00:32:06;;;;;;;;;;;31.00;46.20;;;;;;694231;28;905;-85
2022/07/03 00:32:27;;;;;;;;;;;31.00;46.10;;;;;;691977;28;1232;-85
2022/07/03 00:32:48;;;;;;;;;;;31.00;46.00;;;;;;691929;28;1483;-85
2022/07/03 00:33:09;;;;;;;;;;;31.00;46.10;;;;;;691272;28;1138;-85
2022/07/03 00:33:32;;;;;;;;;;;31.00;45.90;;;;;;692233;28;802;-85
2022/07/03 00:33:54;;;;;;;;;;;31.00;45.90;;;;;;691366;28;1221;-85
2022/07/03 00:34:15;;;;;;;;;;;31.00;45.90;;;;;;692405;28;917;-85
2022/07/03 00:34:40;;;;;;;;;;;31.00;45.90;;;;;;692443;28;1178;-85
2022/07/03 00:35:01;;;;;;;;;;;31.00;45.90;;;;;;695549;28;766;-85
2022/07/03 00:35:22;;;;;;;;;;;31.00;46.00;;;;;;696951;28;743;-85
2022/07/03 00:35:42;;;;;;;;;;;31.00;46.00;;;;;;697998;28;837;-85
2022/07/03 00:36:03;;;;;;;;;;;31.00;45.80;;;;;;699673;28;861;-85
2022/07/03 00:36:26;;;;;;;;;;;31.00;47.50;;;;;;700736;28;790;-85
2022/07/03 00:36:47;;;;;;;;;;;31.00;46.00;;;;;;699599;28;1296;-85
2022/07/03 00:37:08;;;;;;;;;;;31.00;45.90;;;;;;696772;28;1584;-84
2022/07/03 00:37:29;;;;;;;;;;;31.00;45.90;;;;;;694095;28;854;-85
2022/07/03 00:37:51;;;;;;;;;;;31.00;45.90;;;;;;694005;28;1475;-85
2022/07/03 00:38:11;;;;;;;;;;;31.00;45.80;;;;;;693958;28;913;-85
2022/07/03 00:38:32;;;;;;;;;;;31.00;45.80;;;;;;694603;28;1333;-85
2022/07/03 00:38:53;;;;;;;;;;;31.00;46.00;;;;;;697442;28;767;-85
2022/07/03 00:39:14;;;;;;;;;;;31.00;45.90;;;;;;696701;28;1560;-85
2022/07/03 00:39:39;;;;;;;;;;;31.00;45.90;;;;;;694086;28;1205;-85
2022/07/03 00:40:00;;;;;;;;;;;31.00;45.90;;;;;;691371;28;1345;-85
2022/07/03 00:40:21;;;;;;;;;;;31.00;45.90;;;;;;689803;28;1373;-85
2022/07/03 00:40:41;;;;;;;;;;;31.00;46.10;;;;;;691371;28;933;-85
2022/07/03 00:41:03;;;;;;;;;;;31.00;46.30;;;;;;692293;28;1362;-85
2022/07/03 00:41:28;;;;;;;;;;;31.00;46.00;;;;;;695346;28;865;-85
2022/07/03 00:41:58;;;;;;;;;;;31.00;46.10;;;;;;695132;28;1403;-85
2022/07/03 00:42:19;;;;;;;;;;;31.00;46.00;;;;;;696708;28;1367;-85
2022/07/03 00:42:40;;;;;;;;;;;31.00;46.00;;;;;;694080;28;1426;-85
2022/07/03 00:43:01;;;;;;;;;;;31.00;45.90;;;;;;694129;28;1020;-85
2022/07/03 00:43:24;;;;;;;;;;;31.00;45.80;;;;;;691274;28;1380;-86
2022/07/03 00:43:45;;;;;;;;;;;31.00;45.80;;;;;;693392;28;1340;-85
2022/07/03 00:44:06;;;;;;;;;;;31.00;46.50;;;;;;691342;28;1231;-85
2022/07/03 00:44:28;;;;;;;;;;;31.00;46.10;;;;;;689298;28;1204;-86
2022/07/03 00:44:52;;;;;;;;;;;31.00;46.00;;;;;;688612;28;1088;-86
2022/07/03 00:45:15;;;;;;;;;;;31.00;45.90;;;;;;687117;28;1324;-86
2022/07/03 00:45:37;;;;;;;;;;;31.00;45.80;;;;;;689930;28;862;-86
2022/07/03 00:46:06;;;;;;;;;;;31.00;46.00;;;;;;691440;28;798;-85
2022/07/03 00:46:27;;;;;;;;;;;31.00;45.90;;;;;;693723;28;1197;-86
2022/07/03 00:46:50;;;;;;;;;;;31.00;46.30;;;;;;696609;28;787;-86
2022/07/03 00:47:14;;;;;;;;;;;31.00;46.00;;;;;;696300;28;1259;-85
2022/07/03 00:47:36;;;;;;;;;;;31.00;45.80;;;;;;693994;28;1341;-85
2022/07/03 00:47:57;;;;;;;;;;;31.00;46.00;;;;;;694229;28;837;-86
2022/07/03 00:48:19;;;;;;;;;;;31.00;46.00;;;;;;695603;28;869;-85
2022/07/03 00:48:43;;;;;;;;;;;31.00;45.90;;;;;;696838;28;1093;-85
2022/07/03 00:49:05;;;;;;;;;;;30.00;45.70;;;;;;698438;28;929;-86
2022/07/03 00:49:27;;;;;;;;;;;31.00;46.00;;;;;;696766;28;1203;-85
2022/07/03 00:49:51;;;;;;;;;;;31.00;46.30;;;;;;694007;28;1340;-84
2022/07/03 00:50:11;;;;;;;;;;;31.00;46.00;;;;;;693979;28;1358;-84
2022/07/03 00:50:35;;;;;;;;;;;31.00;46.30;;;;;;691232;28;1201;-85
2022/07/03 00:50:59;;;;;;;;;;;31.00;45.80;;;;;;691344;28;847;-85
2022/07/03 00:51:23;;;;;;;;;;;31.00;45.90;;;;;;692842;28;1236;-85
2022/07/03 00:51:48;;;;;;;;;;;31.00;45.80;;;;;;693288;28;1377;-84
2022/07/03 00:52:09;;;;;;;;;;;31.00;45.90;;;;;;693630;28;1454;-85
2022/07/03 00:52:30;;;;;;;;;;;31.00;46.20;;;;;;693922;28;1252;-85
2022/07/03 00:52:52;;;;;;;;;;;31.00;46.00;;;;;;693773;28;1898;-85
2022/07/03 00:53:13;;;;;;;;;;;31.00;46.20;;;;;;691163;28;1374;-85
2022/07/03 00:53:36;;;;;;;;;;;31.00;45.90;;;;;;692565;28;814;-85
2022/07/03 00:53:57;;;;;;;;;;;31.00;45.80;;;;;;695055;28;1009;-85
2022/07/03 00:54:21;;;;;;;;;;;31.00;46.10;;;;;;696716;28;786;-85
2022/07/03 00:54:43;;;;;;;;;;;30.00;45.20;;;;;;698274;28;815;-85
2022/07/03 00:55:07;;;;;;;;;;;31.00;45.90;;;;;;696537;28;1186;-85
2022/07/03 00:55:28;;;;;;;;;;;31.00;46.10;;;;;;695323;28;1114;-85
2022/07/03 00:55:49;;;;;;;;;;;31.00;46.00;;;;;;694024;28;1204;-85
2022/07/03 00:56:11;;;;;;;;;;;31.00;46.30;;;;;;690816;28;1207;-85
2022/07/03 00:56:31;;;;;;;;;;;31.00;45.90;;;;;;691246;28;956;-84
2022/07/03 00:56:54;;;;;;;;;;;31.00;45.90;;;;;;691215;28;1210;-85
2022/07/03 00:57:15;;;;;;;;;;;31.00;46.10;;;;;;692206;28;857;-85
2022/07/03 00:57:42;;;;;;;;;;;31.00;45.90;;;;;;692096;28;1228;-86
2022/07/03 00:58:04;;;;;;;;;;;30.90;45.80;;;;;;695657;28;921;-84
2022/07/03 00:58:24;;;;;;;;;;;31.00;45.80;;;;;;693873;28;1345;-84
2022/07/03 00:58:45;;;;;;;;;;;31.00;45.90;;;;;;692890;28;1212;-84
2022/07/03 00:59:05;;;;;;;;;;;31.00;46.10;;;;;;694150;28;787;-85
2022/07/03 00:59:26;;;;;;;;;;;31.00;46.50;;;;;;693959;28;1358;-86
2022/07/03 00:59:47;;;;;;;;;;;31.00;46.40;;;;;;691176;28;1373;-86
2022/07/03 01:00:08;;;;;;;;;;;31.00;46.30;;;;;;691603;28;1180;-85
2022/07/03 01:00:28;;;;;;;;;;;31.00;45.90;;;;;;694389;28;890;-84
2022/07/03 01:00:51;;;;;;;;;;;30.90;45.90;;;;;;694028;28;1089;-85
2022/07/03 01:01:15;;;;;;;;;;;31.00;45.70;;;;;;693931;28;1082;-85
2022/07/03 01:01:37;;;;;;;;;;;31.00;45.70;;;;;;691237;28;1312;-85
2022/07/03 01:02:04;;;;;;;;;;;31.00;45.70;;;;;;692600;28;1161;-86
2022/07/03 01:02:31;;;;;;;;;;;31.00;46.00;;;;;;691144;28;1108;-85
2022/07/03 01:02:52;;;;;;;;;;;31.00;45.90;;;;;;691314;28;886;-85
2022/07/03 01:03:18;;;;;;;;;;;31.00;45.90;;;;;;688478;28;1110;-85
2022/07/03 01:03:40;;;;;;;;;;;29.30;44.60;;;;;;691136;28;1284;-85
2022/07/03 01:04:06;;;;;;;;;;;31.00;45.80;;;;;;691404;28;886;-85
2022/07/03 01:04:42;;;;;;;;;;;30.90;45.70;;;;;;693780;28;1192;-86
2022/07/03 01:05:21;;;;;;;;;;;31.00;45.80;;;;;;696831;28;825;-85
2022/07/03 01:05:45;;;;;;;;;;;31.00;45.90;;;;;;699439;28;1425;-85
2022/07/03 01:06:10;;;;;;;;;;;31.00;45.80;;;;;;696690;28;1104;-86
2022/07/03 01:06:33;;;;;;;;;;;31.00;46.00;;;;;;696566;28;1348;-85
2022/07/03 01:07:06;;;;;;;;;;;31.00;45.80;;;;;;696779;28;981;-85
2022/07/03 01:07:35;;;;;;;;;;;31.00;45.80;;;;;;696745;28;782;-86
2022/07/03 01:08:14;;;;;;;;;;;31.00;45.80;;;;;;698058;28;1404;-85
2022/07/03 01:08:45;;;;;;;;;;;31.00;45.70;;;;;;699410;28;1012;-85
2022/07/03 01:09:05;;;;;;;;;;;31.00;45.70;;;;;;699560;28;818;-85
2022/07/03 01:09:34;;;;;;;;;;;30.30;45.60;;;;;;696683;28;1362;-85
2022/07/03 01:10:00;;;;;;;;;;;31.00;45.70;;;;;;699105;28;807;-85
2022/07/03 01:10:26;;;;;;;;;;;31.00;45.80;;;;;;699539;28;846;-85
2022/07/03 01:10:53;;;;;;;;;;;31.00;45.70;;;;;;699480;28;806;-86
2022/07/03 01:11:20;;;;;;;;;;;31.00;45.70;;;;;;700489;28;822;-85
2022/07/03 01:11:47;;;;;;;;;;;31.00;45.60;;;;;;699357;28;1239;-84
2022/07/03 01:12:13;;;;;;;;;;;31.00;45.80;;;;;;696747;28;1327;-85
2022/07/03 01:12:57;;;;;;;;;;;31.00;45.80;;;;;;696597;28;1158;-85
2022/07/03 01:13:21;;;;;;;;;;;31.00;45.80;;;;;;685726;28;1104;-86
2022/07/03 01:13:44;;;;;;;;;;;31.00;46.80;;;;;;685689;28;1233;-85
2022/07/03 01:14:23;;;;;;;;;;;31.00;45.80;;;;;;682960;29;1373;-85
2022/07/03 01:14:48;;;;;;;;;;;31.00;45.80;;;;;;682964;29;1195;-85
2022/07/03 01:15:15;;;;;;;;;;;31.00;45.70;;;;;;684397;28;1237;-85
2022/07/03 01:15:50;;;;;;;;;;;31.00;45.90;;;;;;687484;28;863;-86
2022/07/03 01:16:14;;;;;;;;;;;31.00;45.80;;;;;;691262;28;850;-85
2022/07/03 01:16:40;;;;;;;;;;;31.00;45.70;;;;;;692512;28;1344;-85
2022/07/03 01:17:05;;;;;;;;;;;31.00;45.80;;;;;;691073;28;1192;-85
2022/07/03 01:17:35;;;;;;;;;;;31.00;45.90;;;;;;690811;28;1248;-86
2022/07/03 01:18:22;;;;;;;;;;;31.00;45.70;;;;;;691074;28;1296;-85
2022/07/03 01:19:00;;;;;;;;;;;31.00;45.70;;;;;;691253;28;901;-85
2022/07/03 01:19:33;;;;;;;;;;;30.90;45.80;;;;;;689329;28;1242;-85
2022/07/03 01:20:04;;;;;;;;;;;31.00;45.90;;;;;;690979;28;1110;-84
2022/07/03 01:20:27;;;;;;;;;;;30.90;45.80;;;;;;688360;28;1294;-85
2022/07/03 01:20:59;;;;;;;;;;;30.90;45.80;;;;;;688384;28;803;-85
2022/07/03 01:21:34;;;;;;;;;;;30.90;45.90;;;;;;690829;28;1068;-85
2022/07/03 01:22:12;;;;;;;;;;;30.90;45.80;;;;;;690977;28;1400;-85
2022/07/03 01:22:42;;;;;;;;;;;30.90;45.80;;;;;;691063;28;842;-83
2022/07/03 01:23:08;;;;;;;;;;;30.90;45.80;;;;;;688072;28;1097;-85
2022/07/03 01:23:34;;;;;;;;;;;30.90;45.80;;;;;;685694;28;1273;-85
2022/07/03 01:24:00;;;;;;;;;;;30.90;45.90;;;;;;685718;28;733;-85
2022/07/03 01:24:32;;;;;;;;;;;30.90;45.90;;;;;;686620;28;1269;-85
2022/07/03 01:25:12;;;;;;;;;;;30.90;45.90;;;;;;686727;28;1675;-85
2022/07/03 01:25:46;;;;;;;;;;;30.90;45.90;;;;;;688439;28;1234;-85
2022/07/03 01:26:08;;;;;;;;;;;30.90;45.90;;;;;;687721;28;1297;-86
2022/07/03 01:26:34;;;;;;;;;;;30.90;46.30;;;;;;688334;28;1384;-85
2022/07/03 01:26:57;;;;;;;;;;;30.90;46.20;;;;;;691070;28;1633;-85
2022/07/03 01:27:19;;;;;;;;;;;30.80;46.00;;;;;;687932;28;1142;-85
2022/07/03 01:27:51;;;;;;;;;;;30.80;45.90;;;;;;688448;28;870;-85
2022/07/03 01:28:13;;;;;;;;;;;30.80;46.10;;;;;;688316;28;1261;-85
2022/07/03 01:28:36;;;;;;;;;;;30.80;46.00;;;;;;685650;28;1442;-85
2022/07/03 01:28:59;;;;;;;;;;;30.80;46.00;;;;;;688337;28;1312;-86
2022/07/03 01:29:30;;;;;;;;;;;30.80;46.20;;;;;;688351;28;1095;-85
2022/07/03 01:30:01;;;;;;;;;;;30.80;46.10;;;;;;688319;28;1457;-86
2022/07/03 01:30:22;;;;;;;;;;;30.80;46.00;;;;;;689225;28;1393;-86
2022/07/03 01:30:47;;;;;;;;;;;30.80;46.30;;;;;;688439;28;1217;-85
2022/07/03 01:31:08;;;;;;;;;;;30.80;46.10;;;;;;689198;28;894;-86
2022/07/03 01:31:30;;;;;;;;;;;30.80;46.00;;;;;;688272;28;1185;-85
2022/07/03 01:31:51;;;;;;;;;;;30.80;46.30;;;;;;688350;28;1325;-85
2022/07/03 01:32:12;;;;;;;;;;;30.80;46.20;;;;;;685666;28;1290;-85
2022/07/03 01:32:46;;;;;;;;;;;30.80;46.30;;;;;;686824;28;1238;-87
2022/07/03 01:33:14;;;;;;;;;;;30.80;46.10;;;;;;685612;28;1906;-85
2022/07/03 01:33:35;;;;;;;;;;;30.80;46.10;;;;;;688403;28;921;-84
2022/07/03 01:33:56;;;;;;;;;;;30.80;46.00;;;;;;688661;28;867;-86
2022/07/03 01:34:18;;;;;;;;;;;30.80;47.10;;;;;;690665;28;1239;-86
2022/07/03 01:34:40;;;;;;;;;;;30.80;46.10;;;;;;691025;28;1230;-86
2022/07/03 01:35:01;;;;;;;;;;;30.80;46.10;;;;;;688263;28;1475;-85
2022/07/03 01:35:26;;;;;;;;;;;30.80;46.20;;;;;;688428;28;882;-85
2022/07/03 01:35:57;;;;;;;;;;;30.80;46.20;;;;;;687051;28;1229;-85
2022/07/03 01:36:20;;;;;;;;;;;30.80;46.10;;;;;;685633;28;1198;-86
2022/07/03 01:36:41;;;;;;;;;;;30.70;45.90;;;;;;685657;28;1169;-86
2022/07/03 01:37:02;;;;;;;;;;;30.80;46.40;;;;;;688376;28;799;-85
2022/07/03 01:37:24;;;;;;;;;;;30.70;46.20;;;;;;688476;28;878;-86
2022/07/03 01:37:46;;;;;;;;;;;30.70;46.10;;;;;;688300;28;1269;-86
2022/07/03 01:38:10;;;;;;;;;;;30.70;46.00;;;;;;688268;28;916;-86
2022/07/03 01:38:34;;;;;;;;;;;30.70;46.10;;;;;;690660;28;1160;-85
2022/07/03 01:38:55;;;;;;;;;;;30.70;46.10;;;;;;691087;28;1522;-86
2022/07/03 01:39:16;;;;;;;;;;;30.70;46.00;;;;;;691006;28;1300;-86
2022/07/03 01:39:39;;;;;;;;;;;30.70;46.00;;;;;;686933;28;1118;-86
2022/07/03 01:40:01;;;;;;;;;;;30.70;46.10;;;;;;685604;28;1435;-86
2022/07/03 01:40:23;;;;;;;;;;;30.70;46.20;;;;;;684354;28;1367;-85
2022/07/03 01:40:44;;;;;;;;;;;30.70;46.20;;;;;;684014;28;962;-85
2022/07/03 01:41:06;;;;;;;;;;;30.70;46.10;;;;;;682911;29;1369;-86
2022/07/03 01:41:29;;;;;;;;;;;30.70;46.20;;;;;;683073;29;1401;-88
2022/07/03 01:41:50;;;;;;;;;;;30.70;46.10;;;;;;683080;29;745;-85
2022/07/03 01:42:12;;;;;;;;;;;30.70;46.20;;;;;;683050;29;1516;-86
2022/07/03 01:42:34;;;;;;;;;;;30.70;46.40;;;;;;682950;29;1320;-85
2022/07/03 01:42:56;;;;;;;;;;;30.70;46.30;;;;;;684120;28;1419;-86
2022/07/03 01:43:18;;;;;;;;;;;30.70;46.30;;;;;;686660;28;1330;-86
2022/07/03 01:43:41;;;;;;;;;;;30.70;46.10;;;;;;687862;28;1253;-86
2022/07/03 01:44:03;;;;;;;;;;;30.70;46.10;;;;;;687065;28;1182;-87
2022/07/03 01:44:25;;;;;;;;;;;30.70;46.00;;;;;;685272;28;1459;-86
2022/07/03 01:44:49;;;;;;;;;;;29.30;44.90;;;;;;680264;29;1178;-86
2022/07/03 01:45:10;;;;;;;;;;;30.70;46.10;;;;;;677588;29;1193;-85
2022/07/03 01:45:33;;;;;;;;;;;30.70;46.10;;;;;;680361;29;828;-85
2022/07/03 01:45:55;;;;;;;;;;;30.70;46.20;;;;;;684367;28;1279;-86
2022/07/03 01:46:18;;;;;;;;;;;30.70;46.40;;;;;;684409;28;1269;-87
2022/07/03 01:46:41;;;;;;;;;;;30.70;46.40;;;;;;687376;28;1125;-86
2022/07/03 01:47:02;;;;;;;;;;;30.70;46.30;;;;;;688334;28;1516;-85
2022/07/03 01:47:24;;;;;;;;;;;30.70;46.60;;;;;;688252;28;1463;-85
2022/07/03 01:47:45;;;;;;;;;;;30.70;47.00;;;;;;688340;28;1425;-85
2022/07/03 01:48:07;;;;;;;;;;;30.70;46.30;;;;;;689692;28;894;-86
2022/07/03 01:48:28;;;;;;;;;;;30.60;46.10;;;;;;689334;28;1281;-87
2022/07/03 01:48:49;;;;;;;;;;;30.70;46.20;;;;;;688324;28;1513;-85
2022/07/03 01:49:10;;;;;;;;;;;30.70;46.20;;;;;;688498;28;1435;-86
2022/07/03 01:49:32;;;;;;;;;;;30.70;46.40;;;;;;688717;28;815;-86
2022/07/03 01:49:53;;;;;;;;;;;30.70;46.20;;;;;;688755;28;901;-85
2022/07/03 01:50:14;;;;;;;;;;;30.70;46.20;;;;;;689331;28;870;-86
2022/07/03 01:50:36;;;;;;;;;;;30.70;46.30;;;;;;688582;28;1297;-86
2022/07/03 01:50:57;;;;;;;;;;;30.70;46.30;;;;;;686679;28;949;-85
2022/07/03 01:51:18;;;;;;;;;;;30.70;46.20;;;;;;687773;28;1186;-86
2022/07/03 01:51:41;;;;;;;;;;;30.70;46.20;;;;;;694243;28;810;-86
2022/07/03 01:52:02;;;;;;;;;;;30.70;46.20;;;;;;694100;28;1374;-85
2022/07/03 01:52:23;;;;;;;;;;;30.70;46.50;;;;;;694004;28;846;-85
2022/07/03 01:52:45;;;;;;;;;;;30.60;46.30;;;;;;692153;28;1285;-85
2022/07/03 01:53:06;;;;;;;;;;;30.70;46.20;;;;;;694878;28;1975;-86
2022/07/03 01:53:28;;;;;;;;;;;30.70;46.20;;;;;;696602;28;1075;-86
2022/07/03 01:53:49;;;;;;;;;;;30.70;46.30;;;;;;696613;28;1386;-85
2022/07/03 01:54:10;;;;;;;;;;;30.70;46.10;;;;;;696517;28;1212;-85
2022/07/03 01:54:31;;;;;;;;;;;30.70;46.30;;;;;;697567;28;854;-85
2022/07/03 01:54:53;;;;;;;;;;;30.70;46.30;;;;;;696682;28;1336;-86
2022/07/03 01:55:14;;;;;;;;;;;30.70;46.20;;;;;;693858;28;1177;-86
2022/07/03 01:55:37;;;;;;;;;;;30.70;46.30;;;;;;691120;28;1226;-86
2022/07/03 01:56:02;;;;;;;;;;;30.60;46.00;;;;;;692163;28;1197;-86
2022/07/03 01:56:22;;;;;;;;;;;30.60;46.20;;;;;;693836;28;814;-85
2022/07/03 01:56:44;;;;;;;;;;;30.60;46.20;;;;;;693947;28;862;-85
2022/07/03 01:57:05;;;;;;;;;;;30.60;46.20;;;;;;695329;28;1434;-86
2022/07/03 01:57:32;;;;;;;;;;;30.60;46.10;;;;;;697980;28;936;-85
2022/07/03 01:57:53;;;;;;;;;;;30.60;46.20;;;;;;696545;28;1232;-86
2022/07/03 01:58:14;;;;;;;;;;;30.70;46.20;;;;;;696530;28;1274;-86
2022/07/03 01:58:34;;;;;;;;;;;30.70;46.60;;;;;;696560;28;1393;-85
2022/07/03 01:58:58;;;;;;;;;;;30.60;46.20;;;;;;697798;28;1227;-85
2022/07/03 01:59:19;;;;;;;;;;;30.60;46.10;;;;;;699372;28;889;-86
2022/07/03 01:59:39;;;;;;;;;;;30.60;46.10;;;;;;699444;28;815;-85
2022/07/03 02:00:00;;;;;;;;;;;30.60;47.20;;;;;;696670;28;1270;-85
2022/07/03 02:00:22;;;;;;;;;;;30.60;46.10;;;;;;696643;28;826;-85
2022/07/03 02:00:46;;;;;;;;;;;30.60;46.20;;;;;;694677;28;1509;-85
2022/07/03 02:01:16;;;;;;;;;;;30.60;46.10;;;;;;696610;28;822;-86
2022/07/03 02:01:42;;;;;;;;;;;30.60;46.10;;;;;;693794;28;1736;-85
2022/07/03 02:02:09;;;;;;;;;;;30.60;46.00;;;;;;696657;28;837;-85
2022/07/03 02:02:32;;;;;;;;;;;30.60;46.20;;;;;;697429;28;818;-86
2022/07/03 02:03:00;;;;;;;;;;;30.60;46.30;;;;;;699479;28;882;-85
2022/07/03 02:03:28;;;;;;;;;;;30.60;46.10;;;;;;699815;28;909;-85
2022/07/03 02:03:58;;;;;;;;;;;30.60;46.20;;;;;;699346;28;1359;-84
2022/07/03 02:04:31;;;;;;;;;;;30.60;46.10;;;;;;699265;28;1093;-85
2022/07/03 02:04:55;;;;;;;;;;;30.60;46.20;;;;;;699398;28;794;-85
2022/07/03 02:05:32;;;;;;;;;;;30.60;46.20;;;;;;699330;28;1317;-85
2022/07/03 02:06:04;;;;;;;;;;;31.10;46.60;;;;;;699438;28;997;-85
2022/07/03 02:06:40;;;;;;;;;;;30.60;46.20;;;;;;699320;28;1403;-85
2022/07/03 02:07:04;;;;;;;;;;;30.60;46.10;;;;;;699157;28;774;-85
2022/07/03 02:07:48;;;;;;;;;;;30.60;46.30;;;;;;699102;28;925;-84
2022/07/03 02:08:16;;;;;;;;;;;30.60;46.10;;;;;;694772;28;1290;-86
2022/07/03 02:08:44;;;;;;;;;;;30.60;46.00;;;;;;699344;28;849;-85
2022/07/03 02:09:06;;;;;;;;;;;30.60;46.00;;;;;;699425;28;876;-85
2022/07/03 02:09:32;;;;;;;;;;;30.60;46.10;;;;;;699336;28;1211;-85
2022/07/03 02:10:03;;;;;;;;;;;30.60;46.10;;;;;;699407;28;909;-85
2022/07/03 02:10:28;;;;;;;;;;;30.60;46.00;;;;;;696529;28;1181;-85
2022/07/03 02:10:57;;;;;;;;;;;30.70;46.00;;;;;;693882;28;1403;-85
2022/07/03 02:11:19;;;;;;;;;;;30.70;46.00;;;;;;693760;28;1221;-85
2022/07/03 02:11:40;;;;;;;;;;;30.70;46.00;;;;;;693749;28;841;-85
2022/07/03 02:12:01;;;;;;;;;;;30.70;46.00;;;;;;691102;28;1390;-85
2022/07/03 02:12:26;;;;;;;;;;;30.70;46.00;;;;;;693652;28;798;-85
2022/07/03 02:12:51;;;;;;;;;;;30.70;45.90;;;;;;696055;28;1292;-85
2022/07/03 02:13:32;;;;;;;;;;;30.70;45.90;;;;;;693643;28;1902;-85
2022/07/03 02:13:55;;;;;;;;;;;30.70;46.00;;;;;;694696;28;1107;-85
2022/07/03 02:14:22;;;;;;;;;;;30.70;46.10;;;;;;696605;28;822;-85
2022/07/03 02:14:48;;;;;;;;;;;30.70;45.90;;;;;;695816;28;1315;-85
2022/07/03 02:15:09;;;;;;;;;;;30.70;45.90;;;;;;698822;28;921;-85
2022/07/03 02:15:31;;;;;;;;;;;30.70;45.90;;;;;;696532;28;1369;-85
2022/07/03 02:15:52;;;;;;;;;;;30.70;45.80;;;;;;693690;28;1239;-85
2022/07/03 02:16:16;;;;;;;;;;;30.70;46.10;;;;;;693932;28;810;-85
2022/07/03 02:16:49;;;;;;;;;;;30.70;45.90;;;;;;693840;28;1342;-85
2022/07/03 02:17:12;;;;;;;;;;;30.70;45.80;;;;;;691068;28;1322;-85
2022/07/03 02:17:42;;;;;;;;;;;30.70;45.90;;;;;;691069;28;1367;-85
2022/07/03 02:18:20;;;;;;;;;;;30.70;45.80;;;;;;693851;28;869;-85
2022/07/03 02:18:40;;;;;;;;;;;30.70;45.70;;;;;;696630;28;1075;-85
2022/07/03 02:19:04;;;;;;;;;;;30.70;45.80;;;;;;696592;28;1160;-84
2022/07/03 02:19:41;;;;;;;;;;;30.70;45.70;;;;;;695383;28;1212;-84
2022/07/03 02:20:03;;;;;;;;;;;30.70;45.60;;;;;;696625;28;948;-85
2022/07/03 02:20:24;;;;;;;;;;;30.70;45.70;;;;;;696616;28;1098;-85
2022/07/03 02:20:46;;;;;;;;;;;30.70;45.60;;;;;;696362;28;1384;-85
2022/07/03 02:21:12;;;;;;;;;;;30.70;45.70;;;;;;693878;28;1191;-85
2022/07/03 02:21:33;;;;;;;;;;;30.70;46.40;;;;;;693853;28;1201;-85
2022/07/03 02:21:56;;;;;;;;;;;30.70;45.60;;;;;;690978;28;1313;-85
2022/07/03 02:22:18;;;;;;;;;;;30.70;45.60;;;;;;691172;28;787;-86
2022/07/03 02:22:59;;;;;;;;;;;30.70;45.80;;;;;;690305;28;792;-85